aviador You're here:

PAMH Decoded Metar

MINCHUMINA in AK, USA
Report Time2018-01-16 20:56:00
UTC Time2018-01-16 21:18:02
Flight Rules mvfr MVFR
WindCalm
Visibility9999 m
Phenomena:N/A
Clouds:Overcast 015 Hf
Expected CloudBase > 400 ft AGL from Temp-Dew spread
Ceiling1,500 ft
Temp-10°C (ISA -24)
Dew Point-11°C (92% RH)
AAT-13.1°C
QNH993 hPa
Density Alt-1,512 ft
Elevation702 ft
Report Wrong Elevation
Raw Report
PAMH 162056Z AUTO 00000KT 10SM OVC015 M10/M11 A2933 RMK AO2 SLP954
T11001111 57018 FZRANO=

Extra information for PAMH:More info

Metar Taf Metar & Taf Last 4 Metars F.Rules Stats Wind Profile Meteogram Temp Stats Airport Information Weather charts Add Link Nearby VenuesMetar ALERT Operation Metar Decoded Social comments

AIRNAV info for PAMH